Pagina principale
METAR-TAF:

METAR-TAF

Aeroporti :

Dakar, Senegal

Aeroporto di Dakar-Léopold Sedar Senghor

latitudine: 14-44N, longitudine: 017-30W, altezza: 27 m

Osservazione

Il bollettino è stato emesso 58 minuti fa, alle 23:00 UTC
Vento 6 kt da ovest/nord-ovest
Temperature 18°C
Umidità 94%
Pressione 1012 hPa
Visibilità: 8000 m

METAR: GOOY 232300Z 30006KT 8000 NSC 18/17 Q1012

Ora: 23:58 (23:58 UTC)

Previsione

Il bollettino è stato emesso 28 minuti fa, alle 23:30 UTC
Previsione valida dal 24 alle 00 UTC al 25 alle 06 UTC
Vento 8 kt da ovest
Visibilità: 8000 m
Nubi sparse ad un'altezza di 1300 ft

TAF: GOOY 232330Z 2400/2506 28008KT 8000 SCT013

Osservazioni e previsioni meteorologiche di più di 4000 aeroporti (messaggi METAR e TAF).

Le stazioni disponibili sono rappresentate dai dischi gialli e rossi sulla carta.

Puntare il mouse per vedere il nome della stazione.

Clicca sopra per visualizzare le osservazioni e previsioni meteorologiche.

Per cambiare la mappa : fare clic sui pulsanti verdi con una croce nera per ingrandire, il pulsante verde con un trattino per diminuire, o sulla freccia verde per le mappe adiacenti.


METAR-TAF: